Galva, Iowa
Current Conditions -  °F | °C
As of 5:55 PM on Wednesday 26 Nov 2014 (Local Time) from KSLB Reporting Station
Overcast Overcast  
Wind Chill:   Ceiling: 800
Heat Index: 19°   Visibility: 9mi
Dew Point: 18°   Wind: 18mph
Humidity: 93%   Direction: 340°NNW
Pressure: 30.29"   Gusts: 24mph
Location:  42.51°N, 95.42°W
Report Text: KSLB 262355Z AUTO 34016G21KT 9SM OVC008 M07/M08 A3029 RMK AO2
Loading
Personal Weather Stations






























Interactive Weather Map New forecast layout! Learn more

10-Day Weather Forecast

Advertisements
Track Severe Weather on mobile